Southern Baltic, Poland
Current Conditions -  °F | °C
As of 3:30 AM on Tuesday 25 Nov 2014 (Local Time) from EPGD Reporting Station
Broken Clouds Broken Clouds  
Wind Chill: 41°   Ceiling: 700
Heat Index: 41°   Visibility: 6mi
Dew Point: 41°   Wind: 3mph
Humidity: 100%   Direction: 260°W
Pressure: 30.18"   Gusts: NA
Location:  55.25°N, 18.25°E
Report Text: EPGD 250130Z 26003KT 170V310 9999 BKN007 05/05 Q1022
Loading
Personal Weather Stations






























Interactive Weather Map New forecast layout! Learn more

10-Day Weather Forecast

Advertisements
Track Severe Weather on mobile